createdAt,value
2023-04-13T00:02:27.719Z,97505.33
2023-04-13T00:06:21.778Z,97506.13
2023-04-13T00:10:29.922Z,97512.79
2023-04-13T00:14:37.328Z,97510.80
2023-04-13T00:18:34.634Z,97505.02
2023-04-13T00:22:35.669Z,97504.13
2023-04-13T00:26:45.360Z,97503.36
2023-04-13T00:30:25.571Z,97500.27
2023-04-13T00:33:52.873Z,97501.50
2023-04-13T00:38:07.891Z,97495.89
2023-04-13T00:42:14.770Z,97492.47
2023-04-13T00:46:22.105Z,97491.48
2023-04-13T00:50:29.626Z,97491.58
2023-04-13T00:54:09.656Z,97492.77
2023-04-13T00:58:12.014Z,97494.73
2023-04-13T01:02:20.358Z,97496.37
2023-04-13T01:06:29.061Z,97495.13
2023-04-13T01:10:44.061Z,97497.52
2023-04-13T01:14:48.801Z,97496.62
2023-04-13T01:18:38.468Z,97496.20
2023-04-13T01:22:45.867Z,97498.16
2023-04-13T01:26:56.429Z,97498.60
2023-04-13T01:31:02.838Z,97497.16
2023-04-13T01:35:10.329Z,97495.69
2023-04-13T01:39:17.856Z,97500.60
2023-04-13T01:43:26.307Z,97501.92
2023-04-13T01:47:31.622Z,97501.90
2023-04-13T01:51:33.012Z,97500.46
2023-04-13T01:55:35.249Z,97503.09
2023-04-13T01:59:02.819Z,97502.32
2023-04-13T02:03:10.365Z,97508.06
2023-04-13T02:07:17.922Z,97506.42
2023-04-13T02:11:25.360Z,97507.87
2023-04-13T02:15:33.909Z,97510.68
2023-04-13T02:19:43.490Z,97507.27
2023-04-13T02:23:50.901Z,97502.66
2023-04-13T02:27:39.282Z,97503.82
2023-04-13T02:31:49.032Z,97502.08
2023-04-13T02:35:57.233Z,97493.67
2023-04-13T02:40:06.705Z,97487.06
2023-04-13T02:43:57.254Z,97494.07
2023-04-13T02:47:57.451Z,97495.40
2023-04-13T02:51:57.552Z,97499.70
2023-04-13T02:55:57.864Z,97502.94
2023-04-13T02:59:36.093Z,97500.55
2023-04-13T03:03:43.560Z,97505.63
2023-04-13T03:07:51.081Z,97502.52
2023-04-13T03:11:59.560Z,97506.23
2023-04-13T03:16:12.923Z,97510.42
2023-04-13T03:20:20.393Z,97514.19
2023-04-13T03:24:31.651Z,97520.19
2023-04-13T03:28:29.502Z,97521.13
2023-04-13T03:32:36.950Z,97525.73
2023-04-13T03:36:45.631Z,97526.00
2023-04-13T03:40:53.078Z,97532.59
2023-04-13T03:44:38.510Z,97533.65
2023-04-13T03:48:27.792Z,97531.30
2023-04-13T03:52:24.354Z,97536.84
2023-04-13T03:56:25.894Z,97544.74
2023-04-13T04:00:33.400Z,97537.95
2023-04-13T04:03:38.748Z,97542.02
2023-04-13T04:07:23.101Z,97544.55
2023-04-13T04:10:47.604Z,97543.85
2023-04-13T04:14:04.048Z,97543.28
2023-04-13T04:17:41.198Z,97552.20
2023-04-13T04:21:04.591Z,97556.54
2023-04-13T04:24:54.231Z,97562.88
2023-04-13T04:29:00.242Z,97569.61
2023-04-13T04:32:22.479Z,97572.68
2023-04-13T04:36:21.207Z,97568.85
2023-04-13T04:40:24.374Z,97566.08
2023-04-13T04:43:36.989Z,97561.84
2023-04-13T04:47:16.028Z,97557.54
2023-04-13T04:50:57.277Z,97560.38
2023-04-13T04:54:40.550Z,97566.04
2023-04-13T04:58:29.992Z,97570.73
2023-04-13T05:02:01.350Z,97577.02
2023-04-13T05:04:41.189Z,97583.49
2023-04-13T05:07:17.195Z,97580.54
2023-04-13T05:09:55.563Z,97583.04
2023-04-13T05:12:22.297Z,97583.95
2023-04-13T05:15:11.655Z,97584.30
2023-04-13T05:17:41.096Z,97585.45
2023-04-13T05:20:28.006Z,97586.67
2023-04-13T05:23:48.078Z,97584.85
2023-04-13T05:26:24.806Z,97586.16
2023-04-13T05:28:54.799Z,97585.20
2023-04-13T05:31:53.308Z,97585.48
2023-04-13T05:34:20.495Z,97586.17
2023-04-13T05:37:22.486Z,97585.43
2023-04-13T05:40:14.633Z,97588.95
2023-04-13T05:43:05.833Z,97595.21
2023-04-13T05:45:39.358Z,97590.95
2023-04-13T05:48:11.802Z,97593.49
2023-04-13T05:51:32.306Z,97596.82
2023-04-13T05:54:02.152Z,97599.01
2023-04-13T05:56:33.707Z,97602.95
2023-04-13T05:59:03.876Z,97600.54
2023-04-13T06:01:34.495Z,97602.25
2023-04-13T06:04:23.044Z,97602.75
2023-04-13T06:07:09.149Z,97598.34
2023-04-13T06:09:45.420Z,97596.65
2023-04-13T06:12:24.167Z,97593.70
2023-04-13T06:14:52.847Z,97597.30
2023-04-13T06:17:19.974Z,97596.29
2023-04-13T06:19:48.979Z,97593.55
2023-04-13T06:22:35.724Z,97589.01
2023-04-13T06:25:02.716Z,97593.17
2023-04-13T06:28:07.502Z,97591.00
2023-04-13T06:30:37.995Z,97587.42
2023-04-13T06:33:08.132Z,97587.52
2023-04-13T06:35:52.840Z,97588.88
2023-04-13T06:38:46.844Z,97592.25
2023-04-13T06:41:29.529Z,97594.27
2023-04-13T06:44:26.939Z,97602.64
2023-04-13T06:47:42.689Z,97605.89
2023-04-13T06:50:17.841Z,97604.20
2023-04-13T06:52:53.250Z,97601.84
2023-04-13T06:56:01.963Z,97598.13
2023-04-13T06:58:45.426Z,97598.59
2023-04-13T07:01:18.039Z,97602.52
2023-04-13T07:04:01.696Z,97602.23
2023-04-13T07:06:28.998Z,97602.33
2023-04-13T07:08:55.692Z,97595.96
2023-04-13T07:11:28.707Z,97592.02
2023-04-13T07:13:55.408Z,97594.85
2023-04-13T07:16:24.233Z,97592.27
2023-04-13T07:18:51.822Z,97589.29
2023-04-13T07:21:22.379Z,97584.44
2023-04-13T07:24:12.366Z,97584.00
2023-04-13T07:26:57.817Z,97583.92
2023-04-13T07:29:25.190Z,97585.79
2023-04-13T07:32:00.473Z,97590.63
2023-04-13T07:35:03.061Z,97587.63
2023-04-13T07:38:02.271Z,97590.77
2023-04-13T07:40:39.267Z,97594.69
2023-04-13T07:43:29.204Z,97592.79
2023-04-13T07:45:59.197Z,97598.27
2023-04-13T07:48:26.627Z,97598.34
2023-04-13T07:51:08.022Z,97599.09
2023-04-13T07:53:46.531Z,97598.07
2023-04-13T07:56:38.851Z,97597.33
2023-04-13T07:59:28.729Z,97600.66
2023-04-13T08:02:07.543Z,97599.20
2023-04-13T08:04:48.473Z,97601.41
2023-04-13T08:07:31.971Z,97606.48
2023-04-13T08:10:04.544Z,97607.61
2023-04-13T08:12:46.097Z,97607.19
2023-04-13T08:15:32.528Z,97604.92
2023-04-13T08:18:04.087Z,97600.73
2023-04-13T08:20:34.893Z,97603.00
2023-04-13T08:23:19.741Z,97600.73
2023-04-13T08:25:47.048Z,97594.46
2023-04-13T08:28:14.887Z,97593.80
2023-04-13T08:30:51.220Z,97590.55
2023-04-13T08:33:19.466Z,97591.80
2023-04-13T08:35:57.743Z,97585.48
2023-04-13T08:38:48.548Z,97585.63
2023-04-13T08:41:31.105Z,97585.10
2023-04-13T08:44:07.955Z,97584.12
2023-04-13T08:47:07.332Z,97584.05
2023-04-13T08:50:01.315Z,97581.05
2023-04-13T08:52:55.470Z,97582.73
2023-04-13T08:55:25.839Z,97581.01
2023-04-13T08:57:57.777Z,97581.19
2023-04-13T09:00:31.883Z,97581.07
2023-04-13T09:03:07.524Z,97574.98
2023-04-13T09:05:45.529Z,97569.98
2023-04-13T09:08:46.263Z,97572.50
2023-04-13T09:11:26.727Z,97572.23
2023-04-13T09:14:21.911Z,97565.38
2023-04-13T09:17:21.445Z,97563.32
2023-04-13T09:19:52.801Z,97566.71
2023-04-13T09:22:20.980Z,97558.48
2023-04-13T09:24:56.567Z,97561.65
2023-04-13T09:27:43.141Z,97554.56
2023-04-13T09:30:19.022Z,97551.14
2023-04-13T09:32:47.874Z,97552.92
2023-04-13T09:35:14.597Z,97551.52
2023-04-13T09:38:05.602Z,97554.33
2023-04-13T09:40:38.502Z,97556.85
2023-04-13T09:43:07.178Z,97554.66
2023-04-13T09:45:48.329Z,97557.40
2023-04-13T09:48:21.136Z,97557.67
2023-04-13T09:51:01.550Z,97553.39
2023-04-13T09:53:46.653Z,97547.70
2023-04-13T09:56:25.586Z,97549.69
2023-04-13T09:59:05.998Z,97549.04
2023-04-13T10:01:36.669Z,97544.01
2023-04-13T10:04:30.287Z,97544.64
2023-04-13T10:07:02.579Z,97541.08
2023-04-13T10:09:51.077Z,97541.26
2023-04-13T10:12:23.477Z,97537.14
2023-04-13T10:14:51.217Z,97544.30
2023-04-13T10:17:51.105Z,97539.22
2023-04-13T10:20:18.406Z,97542.34
2023-04-13T10:23:01.523Z,97536.41
2023-04-13T10:25:33.459Z,97533.54
2023-04-13T10:28:28.284Z,97534.70
2023-04-13T10:31:05.040Z,97534.34
2023-04-13T10:34:09.077Z,97537.34
2023-04-13T10:36:46.356Z,97544.61
2023-04-13T10:39:25.142Z,97543.63
2023-04-13T10:42:18.037Z,97540.95
2023-04-13T10:44:54.013Z,97538.27
2023-04-13T10:47:25.864Z,97535.36
2023-04-13T10:50:00.183Z,97535.56
2023-04-13T10:52:27.644Z,97534.31
2023-04-13T10:55:25.032Z,97535.13
2023-04-13T10:58:01.121Z,97538.52
2023-04-13T11:01:12.912Z,97538.89
2023-04-13T11:04:05.251Z,97531.31
2023-04-13T11:06:38.768Z,97530.27
2023-04-13T11:09:06.133Z,97529.36
2023-04-13T11:11:35.744Z,97528.02
2023-04-13T11:14:04.691Z,97528.92
2023-04-13T11:16:44.966Z,97527.91
2023-04-13T11:19:12.672Z,97530.77
2023-04-13T11:21:57.263Z,97525.32
2023-04-13T11:24:26.458Z,97523.60
2023-04-13T11:27:07.429Z,97524.71
2023-04-13T11:29:36.871Z,97523.31
2023-04-13T11:32:27.171Z,97521.09
2023-04-13T11:35:06.368Z,97519.52
2023-04-13T11:37:41.140Z,97515.13
2023-04-13T11:40:10.000Z,97523.30
2023-04-13T11:42:45.299Z,97521.13
2023-04-13T11:45:15.896Z,97522.10
2023-04-13T11:48:08.854Z,97523.67
2023-04-13T11:50:46.366Z,97524.55
2023-04-13T11:53:20.542Z,97523.42
2023-04-13T11:56:06.002Z,97522.77
2023-04-13T11:58:35.353Z,97522.98
2023-04-13T12:01:14.368Z,97523.71
2023-04-13T12:03:59.223Z,97525.23
2023-04-13T12:06:34.300Z,97524.95
2023-04-13T12:09:13.601Z,97528.69
2023-04-13T12:11:52.108Z,97523.98
2023-04-13T12:14:53.492Z,97525.30
2023-04-13T12:17:57.654Z,97525.05
2023-04-13T12:20:39.865Z,97523.79
2023-04-13T12:23:24.303Z,97522.27
2023-04-13T12:25:58.159Z,97523.83
2023-04-13T12:28:34.988Z,97518.63
2023-04-13T12:31:22.759Z,97514.79
2023-04-13T12:33:50.953Z,97513.75
2023-04-13T12:36:20.312Z,97510.89
2023-04-13T12:38:59.698Z,97516.06
2023-04-13T12:41:26.884Z,97514.05
2023-04-13T12:44:19.211Z,97513.96
2023-04-13T12:46:46.773Z,97513.35
2023-04-13T12:49:16.045Z,97510.05
2023-04-13T12:51:49.363Z,97512.55
2023-04-13T12:54:21.757Z,97515.36
2023-04-13T12:56:53.778Z,97516.67
2023-04-13T12:59:22.530Z,97517.70
2023-04-13T13:01:49.981Z,97516.77
2023-04-13T13:04:22.860Z,97516.11
2023-04-13T13:07:12.961Z,97514.44
2023-04-13T13:09:41.872Z,97512.91
2023-04-13T13:12:30.367Z,97514.23
2023-04-13T13:15:03.807Z,97511.77
2023-04-13T13:17:33.304Z,97511.59
2023-04-13T13:20:03.417Z,97509.98
2023-04-13T13:22:35.064Z,97507.01
2023-04-13T13:25:17.769Z,97508.98
2023-04-13T13:30:14.800Z,97513.96
2023-04-13T13:32:49.899Z,97512.50
2023-04-13T13:35:19.407Z,97517.34
2023-04-13T13:38:00.327Z,97513.88
2023-04-13T13:40:33.136Z,97518.21
2023-04-13T13:43:49.266Z,97517.41
2023-04-13T13:46:50.688Z,97520.27
2023-04-13T13:49:28.417Z,97522.08
2023-04-13T13:52:27.696Z,97525.52
2023-04-13T13:55:18.887Z,97522.79
2023-04-13T13:57:55.032Z,97518.16
2023-04-13T14:00:25.201Z,97518.77
2023-04-13T14:02:52.040Z,97516.21
2023-04-13T14:05:22.009Z,97515.30
2023-04-13T14:07:54.612Z,97519.67
2023-04-13T14:10:21.950Z,97520.17
2023-04-13T14:13:10.980Z,97519.42
2023-04-13T14:15:42.264Z,97518.54
2023-04-13T14:18:36.100Z,97520.64
2023-04-13T14:21:03.863Z,97519.40
2023-04-13T14:23:39.717Z,97514.71
2023-04-13T14:26:06.633Z,97514.77
2023-04-13T14:28:33.540Z,97517.59
2023-04-13T14:31:26.419Z,97514.52
2023-04-13T14:34:13.270Z,97513.16
2023-04-13T14:36:51.602Z,97508.47
2023-04-13T14:39:20.422Z,97508.38
2023-04-13T14:41:57.998Z,97511.38
2023-04-13T14:44:44.734Z,97509.21
2023-04-13T14:47:15.304Z,97512.02
2023-04-13T14:49:45.728Z,97513.48
2023-04-13T14:52:13.705Z,97513.27
2023-04-13T14:54:56.115Z,97514.26
2023-04-13T14:57:47.442Z,97509.09
2023-04-13T15:00:35.835Z,97506.16
2023-04-13T15:03:23.645Z,97503.28
2023-04-13T15:05:56.836Z,97501.66
2023-04-13T15:08:31.954Z,97504.35
2023-04-13T15:10:58.646Z,97504.55
2023-04-13T15:13:28.202Z,97504.88
2023-04-13T15:15:55.106Z,97504.41
2023-04-13T15:18:21.499Z,97507.55
2023-04-13T15:21:05.643Z,97512.21
2023-04-13T15:23:37.095Z,97512.70
2023-04-13T15:26:04.533Z,97512.84
2023-04-13T15:28:32.431Z,97513.46
2023-04-13T15:31:10.628Z,97517.91
2023-04-13T15:33:39.999Z,97518.86
2023-04-13T15:36:12.434Z,97518.69
2023-04-13T15:38:47.417Z,97527.81
2023-04-13T15:41:27.332Z,97530.71
2023-04-13T15:44:17.885Z,97531.77
2023-04-13T15:46:45.039Z,97533.36
2023-04-13T15:49:13.100Z,97533.17
2023-04-13T15:51:39.882Z,97533.42
2023-04-13T15:54:06.365Z,97538.50
2023-04-13T15:56:33.287Z,97536.66
2023-04-13T15:59:03.059Z,97540.59
2023-04-13T16:01:43.574Z,97538.30
2023-04-13T16:04:14.380Z,97541.17
2023-04-13T16:06:44.101Z,97538.56
2023-04-13T16:09:17.045Z,97537.81
2023-04-13T16:12:10.174Z,97537.88
2023-04-13T16:14:46.081Z,97544.63
2023-04-13T16:17:18.138Z,97553.47
2023-04-13T16:19:49.990Z,97559.37
2023-04-13T16:22:17.360Z,97555.61
2023-04-13T16:24:48.877Z,97553.70
2023-04-13T16:27:42.169Z,97548.26
2023-04-13T16:30:20.079Z,97546.34
2023-04-13T16:32:47.642Z,97545.35
2023-04-13T16:35:17.271Z,97548.25
2023-04-13T16:37:44.476Z,97547.42
2023-04-13T16:40:26.810Z,97549.50
2023-04-13T16:42:53.323Z,97551.05
2023-04-13T16:45:21.101Z,97556.88
2023-04-13T16:48:11.485Z,97562.16
2023-04-13T16:50:43.930Z,97564.14
2023-04-13T16:53:20.908Z,97563.38
2023-04-13T16:55:53.327Z,97565.27
2023-04-13T16:58:20.206Z,97567.88
2023-04-13T17:00:50.451Z,97568.36
2023-04-13T17:03:17.694Z,97569.91
2023-04-13T17:05:44.360Z,97567.71
2023-04-13T17:10:25.794Z,97565.11
2023-04-13T17:12:53.347Z,97565.96
2023-04-13T17:15:26.621Z,97570.66
2023-04-13T17:17:55.056Z,97567.89
2023-04-13T17:20:31.977Z,97575.90
2023-04-13T17:23:19.515Z,97580.43
2023-04-13T17:26:10.563Z,97584.28
2023-04-13T17:28:40.556Z,97596.88
2023-04-13T17:31:10.799Z,97602.35
2023-04-13T17:33:44.981Z,97605.69
2023-04-13T17:36:15.448Z,97610.14
2023-04-13T17:38:42.619Z,97613.66
2023-04-13T17:41:18.061Z,97622.30
2023-04-13T17:43:45.879Z,97627.64
2023-04-13T17:46:15.883Z,97634.43
2023-04-13T17:48:53.337Z,97640.40
2023-04-13T17:51:21.551Z,97640.55
2023-04-13T17:54:18.501Z,97644.48
2023-04-13T17:56:48.449Z,97648.58
2023-04-13T17:59:16.482Z,97655.01
2023-04-13T18:01:44.106Z,97656.62
2023-04-13T18:04:13.395Z,97658.48
2023-04-13T18:06:44.243Z,97663.16
2023-04-13T18:09:14.444Z,97665.90
2023-04-13T18:11:42.304Z,97668.64
2023-04-13T18:14:12.295Z,97674.33
2023-04-13T18:16:45.558Z,97677.16
2023-04-13T18:19:29.415Z,97681.91
2023-04-13T18:21:59.065Z,97681.29
2023-04-13T18:24:26.594Z,97680.94
2023-04-13T18:26:54.008Z,97683.23
2023-04-13T18:29:32.785Z,97686.04
2023-04-13T18:32:04.467Z,97686.17
2023-04-13T18:34:44.147Z,97687.16
2023-04-13T18:37:14.914Z,97687.80
2023-04-13T18:39:42.482Z,97690.50
2023-04-13T18:42:10.159Z,97696.09
2023-04-13T18:44:37.830Z,97696.67
2023-04-13T18:47:05.415Z,97698.05
2023-04-13T18:49:41.750Z,97704.69
2023-04-13T18:52:28.690Z,97708.41
2023-04-13T18:54:56.383Z,97706.36
2023-04-13T18:57:24.288Z,97711.53
2023-04-13T18:59:51.678Z,97717.48
2023-04-13T19:02:26.577Z,97718.96
2023-04-13T19:04:54.210Z,97716.64
2023-04-13T19:07:21.550Z,97714.56
2023-04-13T19:09:49.755Z,97710.85
2023-04-13T19:12:17.566Z,97707.95
2023-04-13T19:14:49.199Z,97705.27
2023-04-13T19:17:30.942Z,97708.00
2023-04-13T19:20:10.189Z,97710.91
2023-04-13T19:22:40.488Z,97710.63
2023-04-13T19:25:14.415Z,97710.30
2023-04-13T19:27:51.638Z,97708.11
2023-04-13T19:30:21.581Z,97713.07
2023-04-13T19:33:00.949Z,97719.52
2023-04-13T19:35:38.155Z,97713.98
2023-04-13T19:38:13.728Z,97713.86
2023-04-13T19:40:43.641Z,97716.48
2023-04-13T19:43:14.782Z,97716.56
2023-04-13T19:45:42.692Z,97715.00
2023-04-13T19:48:19.940Z,97710.94
2023-04-13T19:50:58.559Z,97709.60
2023-04-13T19:53:37.452Z,97711.69
2023-04-13T19:56:06.668Z,97713.80
2023-04-13T19:58:36.460Z,97714.98
2023-04-13T20:01:06.325Z,97718.11
2023-04-13T20:03:40.363Z,97718.27
2023-04-13T20:06:08.897Z,97718.27
2023-04-13T20:08:42.163Z,97718.48
2023-04-13T20:11:20.164Z,97718.89
2023-04-13T20:13:53.253Z,97715.91
2023-04-13T20:16:26.587Z,97724.00
2023-04-13T20:18:54.029Z,97723.73
2023-04-13T20:21:26.630Z,97724.33
2023-04-13T20:23:54.090Z,97726.83
2023-04-13T20:26:54.152Z,97725.45
2023-04-13T20:29:29.312Z,97729.63
2023-04-13T20:32:03.526Z,97729.05
2023-04-13T20:34:35.126Z,97732.79
2023-04-13T20:37:22.413Z,97733.83
2023-04-13T20:40:27.006Z,97731.78
2023-04-13T20:43:20.715Z,97732.09
2023-04-13T20:45:59.920Z,97737.31
2023-04-13T20:51:32.802Z,97737.27
2023-04-13T20:54:44.328Z,97731.20
2023-04-13T20:57:20.198Z,97734.31
2023-04-13T21:00:14.491Z,97736.54
2023-04-13T21:02:50.165Z,97735.14
2023-04-13T21:05:38.352Z,97732.18
2023-04-13T21:09:02.360Z,97730.54
2023-04-13T21:11:33.114Z,97721.98
2023-04-13T21:14:56.527Z,97719.99
2023-04-13T21:18:36.823Z,97721.39
2023-04-13T21:21:30.618Z,97724.87
2023-04-13T21:24:24.355Z,97727.27
2023-04-13T21:27:22.508Z,97729.80
2023-04-13T21:30:31.952Z,97731.63
2023-04-13T21:33:44.026Z,97730.53
2023-04-13T21:39:34.469Z,97731.91
2023-04-13T21:42:17.389Z,97728.99
2023-04-13T21:45:03.995Z,97736.73
2023-04-13T21:47:47.354Z,97732.76
2023-04-13T21:50:34.188Z,97730.49
2023-04-13T21:53:32.760Z,97736.09
2023-04-13T21:56:42.915Z,97737.73
2023-04-13T21:59:43.575Z,97734.95
2023-04-13T22:02:34.757Z,97733.66
2023-04-13T22:05:55.943Z,97734.20
2023-04-13T22:09:06.636Z,97731.54
2023-04-13T22:12:34.979Z,97732.33
2023-04-13T22:15:49.723Z,97727.58
2023-04-13T22:18:20.927Z,97733.27
2023-04-13T22:20:53.968Z,97736.39
2023-04-13T22:23:55.608Z,97736.63
2023-04-13T22:26:47.140Z,97734.05
2023-04-13T22:29:51.697Z,97729.19
2023-04-13T22:33:22.030Z,97728.84
2023-04-13T22:36:24.959Z,97733.05
2023-04-13T22:39:38.570Z,97737.94
2023-04-13T22:42:52.184Z,97732.30
2023-04-13T22:46:08.004Z,97730.95
2023-04-13T22:49:51.720Z,97727.48
2023-04-13T22:53:35.184Z,97729.98
2023-04-13T22:56:33.161Z,97733.83
2023-04-13T22:59:51.377Z,97736.34
2023-04-13T23:02:52.956Z,97738.35
2023-04-13T23:05:51.497Z,97740.48
2023-04-13T23:09:39.689Z,97746.48
2023-04-13T23:12:53.645Z,97737.88
2023-04-13T23:16:23.775Z,97734.20
2023-04-13T23:19:14.339Z,97730.71
2023-04-13T23:22:43.236Z,97731.99
2023-04-13T23:26:23.473Z,97728.48
2023-04-13T23:29:34.152Z,97731.95
2023-04-13T23:33:35.358Z,97734.02
2023-04-13T23:37:30.894Z,97738.09
2023-04-13T23:41:10.755Z,97740.16
2023-04-13T23:45:06.175Z,97744.15
2023-04-13T23:48:33.757Z,97741.00
2023-04-13T23:52:02.425Z,97746.61
2023-04-13T23:55:27.733Z,97750.41
2023-04-13T23:59:15.205Z,97751.63
